Time;durP1;ratioP1;P1;durP2;ratioP2;P2;SDS_P1;SDS_P2;PMS_P1;PMS_P2;Temp;Humidity;BMP_temperature;BMP_pressure;BME280_temperature;BME280_humidity;BME280_pressure;Samples;Min_cycle;Max_cycle;Signal;HPM_P1;HPM_P2
2021/12/16 00:09:35;;;;;;;26.67;15.80;;;12.20;59.60;;;;;;5065329;28;20486;-88
2021/12/16 00:31:22;;;;;;;24.23;13.27;;;12.30;59.00;;;;;;5080090;28;20471;-88
2021/12/16 00:34:00;;;;;;;22.30;14.00;;;12.30;59.10;;;;;;5080421;28;20478;-87
2021/12/16 00:36:31;;;;;;;22.87;13.23;;;12.30;59.10;;;;;;5083146;28;20459;-87
2021/12/16 00:38:58;;;;;;;26.83;13.40;;;12.20;59.00;;;;;;5096183;27;21001;-87
2021/12/16 00:41:26;;;;;;;26.40;13.60;;;12.00;59.80;;;;;;5077430;28;20486;-88
2021/12/16 00:43:58;;;;;;;26.73;13.80;;;12.00;59.70;;;;;;5073816;28;20451;-87
2021/12/16 00:46:55;;;;;;;23.10;12.37;;;12.00;59.60;;;;;;5067387;28;20455;-89
2021/12/16 00:49:33;;;;;;;23.80;13.00;;;12.00;59.50;;;;;;5043441;28;20661;-89
2021/12/16 00:54:58;;;;;;;25.67;13.43;;;11.30;61.20;;;;;;5093874;28;20456;-87
2021/12/16 00:57:25;;;;;;;23.50;12.00;;;11.30;61.40;;;;;;5079081;28;20781;-87
2021/12/16 00:59:53;;;;;;;23.93;11.50;;;11.50;61.50;;;;;;5084095;28;20483;-87
2021/12/16 01:02:41;;;;;;;22.40;10.77;;;11.70;60.90;;;;;;5059751;28;20978;-87
2021/12/16 01:05:50;;;;;;;22.80;11.40;;;11.90;60.40;;;;;;5091992;28;20481;-87
2021/12/16 01:08:44;;;;;;;20.67;11.37;;;12.00;60.00;;;;;;5084228;28;20466;-87
2021/12/16 01:34:07;;;;;;;17.37;10.50;;;12.20;59.10;;;;;;5063877;28;20532;-88
2021/12/16 01:47:59;;;;;;;21.00;11.20;;;12.20;59.20;;;;;;5064136;28;20439;-87
2021/12/16 01:50:31;;;;;;;21.07;11.57;;;12.20;59.50;;;;;;5045615;28;20816;-87
2021/12/16 01:55:43;;;;;;;20.73;12.77;;;12.30;59.30;;;;;;5077970;28;20451;-87
2021/12/16 01:58:16;;;;;;;22.33;12.53;;;12.30;59.10;;;;;;5078307;28;20459;-88
2021/12/16 02:00:59;;;;;;;19.00;12.13;;;12.30;58.80;;;;;;5078725;28;21008;-87
2021/12/16 02:03:41;;;;;;;20.27;11.17;;;12.30;58.90;;;;;;5061319;28;21836;-88
2021/12/16 02:06:22;;;;;;;18.30;11.70;;;12.40;59.00;;;;;;5064687;28;20453;-87
2021/12/16 02:08:51;;;;;;;22.67;10.93;;;12.40;58.90;;;;;;5095073;28;20450;-88
2021/12/16 02:11:30;;;;;;;23.23;12.20;;;12.40;58.90;;;;;;5094894;28;20467;-88
2021/12/16 02:28:13;;;;;;;19.40;10.17;;;12.30;58.90;;;;;;5078226;28;20964;-87
2021/12/16 02:33:51;;;;;;;19.23;10.60;;;12.20;59.20;;;;;;5080064;28;20524;-87
2021/12/16 02:36:26;;;;;;;16.87;10.10;;;12.20;59.20;;;;;;5081399;28;20511;-86
2021/12/16 02:38:58;;;;;;;20.60;11.17;;;12.20;59.10;;;;;;5086361;28;20811;-88
2021/12/16 02:41:26;;;;;;;19.53;11.03;;;12.20;58.90;;;;;;5096146;28;20478;-87
2021/12/16 02:44:20;;;;;;;16.47;9.70;;;12.20;58.90;;;;;;5087771;28;20825;-86
2021/12/16 02:49:44;;;;;;;19.10;9.83;;;12.20;58.90;;;;;;5065633;28;20459;-87
2021/12/16 02:52:12;;;;;;;16.90;8.67;;;12.20;59.00;;;;;;5066438;28;20939;-88
2021/12/16 02:54:41;;;;;;;17.03;9.33;;;12.20;58.90;;;;;;5079651;28;20471;-87
2021/12/16 02:57:09;;;;;;;16.70;9.47;;;12.20;58.90;;;;;;5078672;28;20456;-86
2021/12/16 02:59:36;;;;;;;17.17;10.57;;;12.10;59.00;;;;;;5050060;28;20470;-88
2021/12/16 03:02:10;;;;;;;24.80;11.20;;;12.00;59.40;;;;;;5080491;28;20455;-89
2021/12/16 03:04:44;;;;;;;16.77;9.07;;;12.10;59.40;;;;;;5097024;28;20511;-87
2021/12/16 03:07:14;;;;;;;15.27;9.63;;;12.00;59.30;;;;;;5095103;28;20498;-87
2021/12/16 03:10:24;;;;;;;17.70;8.73;;;12.10;59.20;;;;;;5083004;28;20473;-88
2021/12/16 03:12:59;;;;;;;15.43;8.87;;;12.00;59.10;;;;;;5092711;28;20549;-87
2021/12/16 03:15:52;;;;;;;19.30;9.30;;;12.10;59.10;;;;;;5079567;28;20447;-88
2021/12/16 03:18:29;;;;;;;17.00;9.20;;;12.10;59.00;;;;;;5070202;28;20451;-87
2021/12/16 03:21:01;;;;;;;16.90;9.57;;;12.10;59.00;;;;;;5078695;28;20479;-87
2021/12/16 03:23:38;;;;;;;17.10;8.90;;;12.00;59.20;;;;;;5060944;28;20946;-87
2021/12/16 03:29:14;;;;;;;16.90;9.83;;;12.10;59.20;;;;;;5046870;28;21225;-87
2021/12/16 03:32:12;;;;;;;18.87;9.57;;;12.00;59.40;;;;;;5065415;28;20442;-88
2021/12/16 03:34:57;;;;;;;23.20;10.60;;;12.10;59.30;;;;;;5079443;28;20471;-87
2021/12/16 03:37:27;;;;;;;17.67;10.20;;;12.10;59.30;;;;;;5069244;28;20447;-87
2021/12/16 03:39:59;;;;;;;17.77;10.70;;;12.10;59.40;;;;;;5062477;28;20655;-87
2021/12/16 03:42:29;;;;;;;22.33;10.07;;;12.10;59.30;;;;;;5071401;28;20457;-88
2021/12/16 03:45:05;;;;;;;15.80;8.50;;;12.10;59.20;;;;;;5051172;28;20918;-87
2021/12/16 03:47:40;;;;;;;15.87;8.70;;;12.20;59.30;;;;;;5084359;28;20454;-89
2021/12/16 03:50:11;;;;;;;16.30;10.00;;;12.20;59.10;;;;;;5085063;28;21032;-87
2021/12/16 03:52:38;;;;;;;22.67;9.30;;;12.20;58.90;;;;;;5062077;28;20451;-87
2021/12/16 03:55:09;;;;;;;22.90;9.93;;;12.30;58.90;;;;;;5081498;28;20471;-88
2021/12/16 03:57:40;;;;;;;16.73;8.60;;;12.30;58.70;;;;;;5050328;28;21075;-87
2021/12/16 04:00:14;;;;;;;19.33;10.10;;;12.10;58.80;;;;;;5096090;28;20475;-87
2021/12/16 04:02:57;;;;;;;18.63;9.90;;;11.80;59.40;;;;;;5086009;28;20447;-87
2021/12/16 04:05:29;;;;;;;23.30;10.00;;;11.90;59.70;;;;;;5078990;28;20475;-88
2021/12/16 04:08:00;;;;;;;22.33;9.90;;;12.00;59.60;;;;;;5050767;28;20452;-88
2021/12/16 04:10:39;;;;;;;18.23;9.60;;;11.90;59.50;;;;;;5048044;28;20997;-87
2021/12/16 04:13:15;;;;;;;14.60;9.60;;;12.00;59.40;;;;;;5067607;27;20482;-86
2021/12/16 04:15:46;;;;;;;17.50;9.87;;;12.00;59.40;;;;;;5066927;28;20442;-85
2021/12/16 04:18:14;;;;;;;23.37;10.50;;;12.00;59.20;;;;;;5041656;28;20451;-87
2021/12/16 04:20:42;;;;;;;18.87;9.87;;;11.90;59.20;;;;;;5063118;28;20493;-88
2021/12/16 04:23:11;;;;;;;15.67;9.27;;;11.90;59.20;;;;;;5065445;28;20485;-88
2021/12/16 04:25:43;;;;;;;15.70;8.33;;;12.00;59.20;;;;;;5080125;28;20930;-88
2021/12/16 04:28:15;;;;;;;16.07;9.83;;;12.10;59.10;;;;;;5078842;28;20562;-85
2021/12/16 04:30:44;;;;;;;14.67;9.63;;;12.10;59.00;;;;;;5084743;28;20482;-87
2021/12/16 04:33:11;;;;;;;15.67;9.20;;;12.10;58.90;;;;;;5094795;28;20482;-87
2021/12/16 04:35:39;;;;;;;20.60;10.50;;;12.20;59.00;;;;;;5081403;28;20870;-85
2021/12/16 04:38:08;;;;;;;19.97;9.50;;;12.20;58.80;;;;;;5094593;28;20462;-87
2021/12/16 04:40:38;;;;;;;13.53;8.60;;;12.20;59.00;;;;;;5067111;28;20495;-88
2021/12/16 04:43:08;;;;;;;18.43;9.50;;;12.20;59.00;;;;;;5063948;28;20822;-87
2021/12/16 04:46:00;;;;;;;16.50;8.47;;;12.20;58.70;;;;;;5097522;27;20444;-87
2021/12/16 04:48:28;;;;;;;18.30;8.80;;;12.20;58.60;;;;;;5059603;28;20955;-87
2021/12/16 04:50:56;;;;;;;22.37;10.43;;;12.20;58.70;;;;;;5084567;28;20479;-87
2021/12/16 04:53:23;;;;;;;16.20;9.00;;;12.10;58.60;;;;;;5069146;28;20958;-87
2021/12/16 04:55:54;;;;;;;19.33;8.97;;;12.10;58.90;;;;;;5076403;28;20802;-87
2021/12/16 04:58:22;;;;;;;18.10;9.53;;;12.10;58.80;;;;;;5041726;28;20458;-85
2021/12/16 05:00:50;;;;;;;19.00;9.50;;;12.20;58.80;;;;;;5063963;28;20471;-88
2021/12/16 05:03:28;;;;;;;23.73;8.67;;;12.20;58.70;;;;;;5079269;28;20451;-88
2021/12/16 05:05:56;;;;;;;24.20;9.87;;;12.20;58.60;;;;;;5070286;28;20492;-87
2021/12/16 05:08:23;;;;;;;18.73;9.50;;;12.10;58.70;;;;;;5086537;28;20463;-89
2021/12/16 05:11:01;;;;;;;17.27;9.07;;;12.20;58.90;;;;;;5060688;28;20568;-88
2021/12/16 05:13:30;;;;;;;20.37;9.73;;;12.20;58.90;;;;;;5091927;28;20468;-87
2021/12/16 05:16:01;;;;;;;18.93;10.80;;;12.20;58.70;;;;;;5096113;28;20461;-87
2021/12/16 05:18:33;;;;;;;16.80;9.47;;;12.00;58.80;;;;;;5094075;28;21051;-87
2021/12/16 05:21:04;;;;;;;15.53;9.63;;;12.00;58.90;;;;;;5094967;28;20845;-87
2021/12/16 05:26:20;;;;;;;14.53;9.70;;;12.10;59.00;;;;;;5058914;28;20566;-88
2021/12/16 05:29:02;;;;;;;15.47;10.30;;;12.10;59.00;;;;;;5060423;28;21051;-87
2021/12/16 05:31:30;;;;;;;16.30;9.57;;;12.20;58.90;;;;;;5047721;28;21062;-85
2021/12/16 05:34:01;;;;;;;19.37;10.23;;;11.90;58.80;;;;;;5094264;28;20466;-87
2021/12/16 05:36:29;;;;;;;21.20;9.67;;;11.70;59.50;;;;;;5083614;28;20513;-88
2021/12/16 05:38:57;;;;;;;17.60;10.43;;;11.90;59.40;;;;;;5062288;28;20435;-87
2021/12/16 05:41:27;;;;;;;17.20;10.20;;;12.00;59.00;;;;;;5061702;28;20986;-88
2021/12/16 05:43:57;;;;;;;16.67;9.47;;;12.00;58.90;;;;;;5060530;28;20440;-87
2021/12/16 05:46:26;;;;;;;21.93;10.63;;;12.10;59.00;;;;;;5090743;28;20443;-87
2021/12/16 05:48:55;;;;;;;18.73;9.10;;;12.20;59.00;;;;;;5074683;28;20458;-87
2021/12/16 05:51:31;;;;;;;18.53;10.57;;;12.20;58.80;;;;;;5060895;28;20475;-88
2021/12/16 05:53:59;;;;;;;18.77;10.23;;;12.20;58.50;;;;;;5075029;28;20501;-87
2021/12/16 05:56:41;;;;;;;20.60;10.47;;;12.20;58.40;;;;;;5077633;28;20842;-88
2021/12/16 05:59:11;;;;;;;19.90;10.17;;;12.20;58.50;;;;;;5067743;27;20869;-87
2021/12/16 06:01:41;;;;;;;19.07;9.27;;;12.20;58.50;;;;;;5095135;28;20554;-88
2021/12/16 06:04:09;;;;;;;17.90;10.13;;;12.20;58.50;;;;;;5080444;28;20938;-88
2021/12/16 06:06:38;;;;;;;20.30;10.80;;;12.20;58.50;;;;;;5080183;28;20482;-87
2021/12/16 06:09:07;;;;;;;16.43;9.47;;;12.20;58.50;;;;;;5064586;28;20543;-87
2021/12/16 06:11:34;;;;;;;19.10;10.00;;;12.20;58.60;;;;;;5102116;28;20478;-88
2021/12/16 06:14:11;;;;;;;17.87;10.60;;;12.20;58.60;;;;;;5103024;27;20541;-86
2021/12/16 06:22:48;;;;;;;16.33;10.07;;;12.20;58.40;;;;;;5082946;28;20862;-87
2021/12/16 06:28:06;;;;;;;20.30;11.03;;;12.20;58.40;;;;;;5100178;28;20556;-87
2021/12/16 06:30:36;;;;;;;28.77;15.70;;;12.20;58.50;;;;;;5099835;28;20514;-88
2021/12/16 06:33:06;;;;;;;38.90;18.70;;;12.20;58.60;;;;;;5099253;27;20460;-88
2021/12/16 06:35:33;;;;;;;50.17;26.03;;;12.20;58.70;;;;;;5084444;28;20467;-87
2021/12/16 06:38:02;;;;;;;43.00;22.90;;;12.20;58.50;;;;;;5053037;27;20454;-88
2021/12/16 06:40:34;;;;;;;44.43;21.30;;;12.10;58.40;;;;;;5101260;27;20474;-87
2021/12/16 06:43:19;;;;;;;42.97;18.80;;;12.10;58.70;;;;;;5082400;28;20546;-87
2021/12/16 06:45:49;;;;;;;35.13;16.93;;;12.10;58.60;;;;;;5084985;28;20546;-87
2021/12/16 06:48:21;;;;;;;29.27;14.83;;;12.20;58.70;;;;;;5071688;27;20861;-88
2021/12/16 06:50:52;;;;;;;21.87;14.20;;;12.10;58.50;;;;;;5068419;28;21114;-88
2021/12/16 06:53:27;;;;;;;22.47;13.23;;;12.20;58.50;;;;;;5055830;28;20478;-87
2021/12/16 06:56:04;;;;;;;18.80;10.63;;;12.20;58.40;;;;;;5082486;28;20475;-86
2021/12/16 06:58:36;;;;;;;17.97;11.37;;;12.10;58.30;;;;;;5103468;28;20565;-87
2021/12/16 07:01:10;;;;;;;17.73;11.23;;;12.10;58.30;;;;;;5069941;28;20551;-87
2021/12/16 07:03:46;;;;;;;20.30;11.90;;;12.10;58.20;;;;;;5085330;28;20505;-87
2021/12/16 07:06:14;;;;;;;22.63;12.60;;;12.00;58.60;;;;;;5056634;27;20545;-87
2021/12/16 07:08:43;;;;;;;18.93;10.87;;;12.00;58.80;;;;;;5080017;28;20482;-87
2021/12/16 07:11:10;;;;;;;24.83;12.27;;;12.00;58.70;;;;;;5098892;28;20485;-88
2021/12/16 07:13:40;;;;;;;16.97;10.40;;;12.10;58.60;;;;;;5101005;27;20460;-87
2021/12/16 07:16:08;;;;;;;19.47;10.47;;;12.10;58.50;;;;;;5087519;27;20969;-87
2021/12/16 07:18:35;;;;;;;16.60;11.03;;;12.10;58.50;;;;;;5084213;28;20454;-88
2021/12/16 07:21:03;;;;;;;24.97;12.93;;;12.10;58.50;;;;;;5062709;28;20468;-87
2021/12/16 07:23:30;;;;;;;30.47;14.80;;;12.10;58.40;;;;;;5084680;28;20461;-87
2021/12/16 07:25:59;;;;;;;25.17;13.47;;;12.10;58.20;;;;;;5082772;28;20447;-87
2021/12/16 07:28:26;;;;;;;25.50;14.20;;;12.00;58.40;;;;;;5065857;28;20550;-87
2021/12/16 07:30:53;;;;;;;23.63;13.37;;;12.00;58.60;;;;;;5070834;28;20886;-87
2021/12/16 07:33:20;;;;;;;29.53;15.53;;;11.90;58.60;;;;;;5080195;28;20456;-87
2021/12/16 07:35:48;;;;;;;24.87;14.37;;;11.90;58.60;;;;;;5098179;28;20456;-87
2021/12/16 07:38:16;;;;;;;27.20;14.93;;;11.90;58.70;;;;;;5100876;28;20456;-87
2021/12/16 07:40:45;;;;;;;29.93;15.37;;;11.90;58.80;;;;;;5081825;28;20475;-87
2021/12/16 07:43:52;;;;;;;28.50;14.37;;;12.00;58.80;;;;;;5096896;28;20882;-85
2021/12/16 07:46:14;;;;;;;41.30;26.10;;;12.00;58.70;;;;;;5058725;27;20526;-87
2021/12/16 07:48:41;;;;;;;29.70;19.13;;;11.80;58.70;;;;;;5089388;27;20461;-87
2021/12/16 07:51:10;;;;;;;25.30;14.10;;;11.80;58.90;;;;;;5083123;28;20493;-86
2021/12/16 07:53:37;;;;;;;77.97;34.93;;;11.90;58.90;;;;;;5056087;28;20458;-87
2021/12/16 07:56:06;;;;;;;42.17;23.60;;;11.90;58.60;;;;;;5081628;28;20466;-87
2021/12/16 07:58:35;;;;;;;51.23;26.80;;;11.90;58.40;;;;;;5100746;27;20453;-87
2021/12/16 08:01:03;;;;;;;49.83;29.23;;;11.90;59.10;;;;;;5065187;28;20463;-87
2021/12/16 08:03:35;;;;;;;29.80;16.20;;;12.00;58.70;;;;;;5064817;27;20640;-86
2021/12/16 08:06:07;;;;;;;28.90;16.47;;;12.10;58.80;;;;;;5085278;28;20474;-87
2021/12/16 08:08:34;;;;;;;31.07;15.70;;;12.00;58.80;;;;;;5105820;27;20492;-87
2021/12/16 08:11:02;;;;;;;29.23;16.03;;;12.00;59.00;;;;;;5084110;28;20486;-87
2021/12/16 08:13:28;;;;;;;31.80;14.97;;;12.00;58.90;;;;;;5100939;27;20451;-87
2021/12/16 08:15:59;;;;;;;28.33;14.67;;;12.10;59.00;;;;;;5086380;28;20493;-87
2021/12/16 08:18:26;;;;;;;36.77;21.13;;;12.10;58.90;;;;;;5084145;28;20539;-87
2021/12/16 08:20:53;;;;;;;35.93;18.13;;;12.20;58.80;;;;;;5102927;28;20467;-86
2021/12/16 08:23:21;;;;;;;33.67;18.93;;;12.20;58.70;;;;;;5067850;28;20447;-84
2021/12/16 08:25:48;;;;;;;23.73;15.53;;;12.30;58.70;;;;;;5067670;28;20427;-85
2021/12/16 08:28:16;;;;;;;31.30;16.97;;;12.30;58.70;;;;;;5066731;28;20451;-86
2021/12/16 08:30:45;;;;;;;20.23;13.07;;;12.30;58.60;;;;;;5067489;27;20888;-86
2021/12/16 08:33:14;;;;;;;22.33;12.80;;;12.30;58.60;;;;;;5064285;28;20462;-87
2021/12/16 08:35:45;;;;;;;24.27;13.00;;;12.40;58.60;;;;;;5082814;28;20473;-85
2021/12/16 08:38:15;;;;;;;20.77;11.67;;;12.40;58.70;;;;;;5083345;28;20506;-87
2021/12/16 08:40:43;;;;;;;21.60;12.20;;;12.40;58.70;;;;;;5084914;28;20477;-87
2021/12/16 08:43:12;;;;;;;23.17;13.07;;;12.30;58.70;;;;;;5105291;27;20566;-88
2021/12/16 08:45:41;;;;;;;17.63;10.00;;;12.30;58.80;;;;;;5062434;28;20453;-87
2021/12/16 08:48:10;;;;;;;21.60;12.00;;;12.20;59.30;;;;;;5051810;27;20618;-87
2021/12/16 08:50:42;;;;;;;15.83;11.60;;;12.20;59.40;;;;;;5103496;27;21041;-87
2021/12/16 08:53:10;;;;;;;21.33;11.77;;;12.20;59.20;;;;;;5068031;28;20443;-87
2021/12/16 08:55:41;;;;;;;24.90;12.17;;;12.30;59.20;;;;;;5067026;28;20548;-87
2021/12/16 08:58:08;;;;;;;20.80;11.80;;;12.30;59.00;;;;;;5104331;27;20789;-87
2021/12/16 09:00:38;;;;;;;23.47;12.27;;;12.20;59.10;;;;;;5089292;28;20478;-87
2021/12/16 09:03:06;;;;;;;34.33;22.20;;;12.30;59.20;;;;;;5099507;27;20983;-86
2021/12/16 09:05:33;;;;;;;28.83;15.93;;;12.30;58.90;;;;;;5100351;27;20502;-87
2021/12/16 09:08:01;;;;;;;27.30;13.77;;;12.30;59.40;;;;;;5064546;28;20447;-87
2021/12/16 09:10:31;;;;;;;26.90;14.53;;;12.30;58.80;;;;;;5085692;28;20495;-87
2021/12/16 09:13:02;;;;;;;28.37;14.83;;;12.30;58.90;;;;;;5063724;28;20444;-87
2021/12/16 09:15:32;;;;;;;29.80;15.63;;;12.40;58.90;;;;;;5089964;28;20475;-88
2021/12/16 09:17:59;;;;;;;25.63;14.43;;;12.40;58.70;;;;;;5066460;28;20827;-87
2021/12/16 09:20:27;;;;;;;27.40;13.70;;;12.40;58.70;;;;;;5085461;28;20507;-87
2021/12/16 09:22:54;;;;;;;23.23;14.87;;;12.40;58.60;;;;;;5068154;28;20527;-87
2021/12/16 09:25:23;;;;;;;35.07;17.80;;;12.40;58.70;;;;;;5100974;27;20480;-87
2021/12/16 09:27:50;;;;;;;42.23;20.37;;;12.30;58.70;;;;;;5066269;28;20486;-87
2021/12/16 09:30:21;;;;;;;27.57;17.57;;;12.40;58.80;;;;;;5085378;28;20832;-87
2021/12/16 09:32:51;;;;;;;32.13;17.43;;;12.30;58.90;;;;;;5082275;28;20458;-87
2021/12/16 09:35:19;;;;;;;31.53;18.10;;;12.30;58.80;;;;;;5085217;28;20462;-87
2021/12/16 09:37:47;;;;;;;28.10;18.40;;;12.50;58.70;;;;;;5088120;28;20457;-87
2021/12/16 09:40:19;;;;;;;29.23;18.23;;;12.50;58.40;;;;;;5090389;28;20458;-87
2021/12/16 09:42:47;;;;;;;23.90;14.50;;;12.60;58.30;;;;;;5065941;28;20451;-87
2021/12/16 09:45:15;;;;;;;21.47;13.70;;;12.60;58.00;;;;;;5086834;28;20454;-87
2021/12/16 09:47:44;;;;;;;28.90;14.43;;;12.50;57.60;;;;;;5103662;28;20701;-87
2021/12/16 09:50:18;;;;;;;23.63;14.20;;;12.50;57.70;;;;;;5082391;28;20863;-88
2021/12/16 09:52:45;;;;;;;22.40;13.20;;;12.50;57.60;;;;;;5085588;28;20986;-88
2021/12/16 09:55:12;;;;;;;25.60;15.13;;;12.60;57.50;;;;;;5100115;28;21005;-87
2021/12/16 09:57:39;;;;;;;24.43;14.30;;;12.40;57.70;;;;;;5098927;28;20450;-87
2021/12/16 10:00:12;;;;;;;23.23;13.40;;;12.20;58.10;;;;;;5086402;28;20458;-86
2021/12/16 10:02:39;;;;;;;28.27;16.53;;;12.30;58.30;;;;;;5074570;28;20459;-87
2021/12/16 10:05:09;;;;;;;29.20;14.30;;;12.40;58.90;;;;;;5085532;28;20472;-87
2021/12/16 10:07:37;;;;;;;22.03;13.50;;;12.40;58.10;;;;;;5074934;28;22076;-87
2021/12/16 10:10:08;;;;;;;33.87;18.20;;;12.50;57.90;;;;;;5083120;28;20475;-88
2021/12/16 10:12:39;;;;;;;25.30;16.90;;;12.50;57.80;;;;;;5105952;28;20449;-85
2021/12/16 10:17:51;;;;;;;32.50;20.47;;;12.50;57.60;;;;;;5085497;28;20450;-86
2021/12/16 10:20:23;;;;;;;38.40;21.13;;;12.60;57.60;;;;;;5084584;28;20459;-87
2021/12/16 10:22:51;;;;;;;32.83;19.90;;;12.60;57.60;;;;;;5101749;28;21191;-86
2021/12/16 10:25:29;;;;;;;30.20;18.83;;;12.60;57.50;;;;;;5070852;28;20434;-86
2021/12/16 10:28:07;;;;;;;28.43;17.73;;;12.60;57.50;;;;;;5110497;28;20540;-85
2021/12/16 10:30:52;;;;;;;28.50;15.63;;;12.60;57.60;;;;;;5104688;28;20466;-86
2021/12/16 10:33:34;;;;;;;27.30;14.50;;;12.60;57.60;;;;;;5083979;28;20505;-86
2021/12/16 10:36:10;;;;;;;30.77;16.27;;;12.60;57.60;;;;;;5099587;28;20470;-86
2021/12/16 10:38:40;;;;;;;26.17;17.40;;;12.70;57.60;;;;;;5066450;28;20530;-86
2021/12/16 10:41:10;;;;;;;22.90;14.40;;;12.80;57.80;;;;;;5067213;28;20550;-87
2021/12/16 10:43:41;;;;;;;20.23;13.37;;;12.80;57.60;;;;;;5085952;28;20557;-87
2021/12/16 10:46:13;;;;;;;24.70;14.50;;;12.90;57.40;;;;;;5085872;28;20439;-86
2021/12/16 10:48:42;;;;;;;23.83;13.67;;;13.00;57.40;;;;;;5102158;27;20448;-87
2021/12/16 10:51:20;;;;;;;17.60;10.17;;;13.00;57.50;;;;;;5101361;28;20539;-86
2021/12/16 10:54:01;;;;;;;18.10;10.33;;;13.00;57.20;;;;;;5089672;28;20570;-87
2021/12/16 10:56:33;;;;;;;16.33;11.23;;;13.00;56.80;;;;;;5072330;28;20470;-85
2021/12/16 10:59:03;;;;;;;15.43;10.47;;;12.90;56.90;;;;;;5078070;28;20529;-86
2021/12/16 11:01:49;;;;;;;19.37;12.27;;;12.90;57.00;;;;;;5105227;27;20459;-87
2021/12/16 11:04:21;;;;;;;17.50;10.20;;;13.00;57.70;;;;;;5071410;28;20482;-86
2021/12/16 11:06:51;;;;;;;19.60;10.70;;;13.10;57.20;;;;;;5103820;27;20830;-86
2021/12/16 11:09:30;;;;;;;18.30;11.73;;;13.20;57.10;;;;;;5087162;28;20451;-86
2021/12/16 11:12:42;;;;;;;15.97;9.37;;;13.20;56.70;;;;;;5110244;27;20459;-87
2021/12/16 11:15:15;;;;;;;19.57;11.17;;;13.20;56.60;;;;;;5062263;28;20462;-86
2021/12/16 11:17:45;;;;;;;21.27;12.00;;;13.10;57.00;;;;;;5067951;28;20431;-86
2021/12/16 11:20:18;;;;;;;19.00;9.83;;;13.10;57.10;;;;;;5086753;28;20475;-86
2021/12/16 11:22:47;;;;;;;12.53;9.40;;;13.20;57.10;;;;;;5089064;28;20470;-87
2021/12/16 11:25:18;;;;;;;15.27;9.83;;;13.30;57.00;;;;;;5057096;28;20538;-86
2021/12/16 11:27:49;;;;;;;12.13;8.13;;;13.40;57.10;;;;;;5068817;28;21011;-86
2021/12/16 11:30:43;;;;;;;15.63;9.03;;;13.30;56.50;;;;;;5085095;28;20463;-86
2021/12/16 11:33:18;;;;;;;15.40;9.20;;;13.20;57.00;;;;;;5076854;28;20461;-86
2021/12/16 11:35:56;;;;;;;15.37;9.70;;;13.20;57.20;;;;;;5082895;28;20557;-85
2021/12/16 11:38:31;;;;;;;16.43;9.43;;;13.30;57.30;;;;;;5080213;28;20820;-87
2021/12/16 11:41:07;;;;;;;22.97;9.20;;;13.40;57.00;;;;;;5080460;28;20463;-87
2021/12/16 11:43:38;;;;;;;16.90;10.00;;;13.50;56.70;;;;;;5099204;27;21001;-88
2021/12/16 11:46:11;;;;;;;13.30;10.23;;;13.50;56.60;;;;;;5079797;27;20477;-87
2021/12/16 11:48:41;;;;;;;17.33;9.30;;;13.50;56.50;;;;;;5104715;27;20462;-87
2021/12/16 11:51:12;;;;;;;19.57;10.40;;;13.40;57.10;;;;;;5110191;27;20471;-87
2021/12/16 11:53:46;;;;;;;18.20;10.23;;;13.30;57.40;;;;;;5106667;28;20835;-87
2021/12/16 11:56:14;;;;;;;16.67;9.77;;;13.30;57.50;;;;;;5073636;27;20466;-87
2021/12/16 11:58:44;;;;;;;14.63;8.80;;;13.40;57.50;;;;;;5069115;28;20443;-86
2021/12/16 12:01:18;;;;;;;16.17;9.60;;;13.50;57.50;;;;;;5100967;27;20501;-87
2021/12/16 12:03:47;;;;;;;20.90;10.57;;;13.60;57.10;;;;;;5103387;27;20489;-87
2021/12/16 12:06:30;;;;;;;17.13;10.23;;;13.70;57.00;;;;;;5068459;28;20440;-86
2021/12/16 12:08:59;;;;;;;18.03;10.80;;;13.80;56.90;;;;;;5085256;28;20496;-87
2021/12/16 12:11:29;;;;;;;21.70;10.37;;;13.90;56.90;;;;;;5072486;28;20558;-87
2021/12/16 12:14:00;;;;;;;14.63;8.53;;;13.90;56.50;;;;;;5102366;28;20454;-87
2021/12/16 12:16:33;;;;;;;15.70;9.70;;;13.90;56.50;;;;;;5097707;28;20986;-87
2021/12/16 12:19:14;;;;;;;22.17;11.10;;;14.00;56.60;;;;;;5100625;28;20801;-86
2021/12/16 12:21:44;;;;;;;12.77;8.73;;;14.00;56.30;;;;;;5081348;28;20644;-87
2021/12/16 12:24:15;;;;;;;23.40;14.57;;;14.00;56.00;;;;;;5068177;28;20443;-85
2021/12/16 12:26:47;;;;;;;25.93;16.80;;;14.00;55.90;;;;;;5082167;28;20451;-86
2021/12/16 12:29:17;;;;;;;49.20;32.17;;;14.00;56.10;;;;;;5081420;28;20509;-86
2021/12/16 12:31:47;;;;;;;27.47;16.30;;;14.00;56.10;;;;;;5080463;28;20463;-87
2021/12/16 12:34:17;;;;;;;33.10;19.37;;;14.00;55.80;;;;;;5100492;28;20582;-86
2021/12/16 12:36:45;;;;;;;102.00;42.83;;;14.10;56.00;;;;;;5069730;28;20990;-86
2021/12/16 12:39:15;;;;;;;24.87;13.73;;;14.20;56.10;;;;;;5064222;28;20869;-86
2021/12/16 12:41:43;;;;;;;24.97;15.40;;;14.20;56.20;;;;;;5102321;28;20471;-87
2021/12/16 12:44:10;;;;;;;17.73;10.70;;;14.20;55.70;;;;;;5103346;27;20442;-88
2021/12/16 12:46:39;;;;;;;13.77;8.97;;;14.30;56.10;;;;;;5080527;27;20442;-87
2021/12/16 12:49:09;;;;;;;17.30;10.17;;;14.20;55.70;;;;;;5100742;28;20528;-86
2021/12/16 12:51:40;;;;;;;12.70;9.27;;;14.20;55.80;;;;;;5097974;28;20554;-88
2021/12/16 12:54:24;;;;;;;21.57;10.90;;;14.30;56.00;;;;;;5100447;27;20454;-87
2021/12/16 12:56:56;;;;;;;25.53;16.67;;;14.30;56.10;;;;;;5067104;28;20466;-87
2021/12/16 12:59:34;;;;;;;18.90;11.03;;;14.30;56.00;;;;;;5075106;27;20578;-88
2021/12/16 13:02:01;;;;;;;14.27;10.73;;;14.30;55.70;;;;;;5100257;27;20451;-87
2021/12/16 13:04:30;;;;;;;31.17;16.07;;;14.30;55.70;;;;;;5098169;27;20486;-87
2021/12/16 13:07:05;;;;;;;19.87;11.93;;;14.30;55.70;;;;;;5100126;28;20993;-86
2021/12/16 13:09:36;;;;;;;16.03;8.60;;;14.30;55.70;;;;;;5067515;28;20954;-87
2021/12/16 13:12:20;;;;;;;8.13;6.33;;;14.30;55.60;;;;;;5099752;27;20477;-88
2021/12/16 13:14:51;;;;;;;15.23;9.10;;;14.30;55.40;;;;;;5099158;28;20473;-88
2021/12/16 13:23:22;;;;;;;13.47;8.73;;;14.30;55.40;;;;;;5077565;28;20475;-87
2021/12/16 13:23:35;;;;;;;27.70;13.50;;;14.40;55.30;;;;;;5102917;27;20459;-87
2021/12/16 13:29:12;;;;;;;16.30;11.03;;;14.50;55.30;;;;;;5101665;27;21079;-86
2021/12/16 13:31:51;;;;;;;11.00;8.43;;;14.50;55.20;;;;;;5087200;28;21496;-86
2021/12/16 13:34:28;;;;;;;14.70;8.37;;;14.40;55.00;;;;;;5098878;28;20927;-87
2021/12/16 13:37:02;;;;;;;13.60;8.70;;;14.50;55.20;;;;;;5081841;28;20505;-88
2021/12/16 13:39:31;;;;;;;10.90;7.37;;;14.60;55.40;;;;;;5078334;28;20460;-87
2021/12/16 13:42:03;;;;;;;11.50;8.00;;;14.60;55.20;;;;;;5096393;28;20870;-87
2021/12/16 13:44:57;;;;;;;10.73;7.47;;;14.70;55.00;;;;;;5084133;28;20494;-87
2021/12/16 13:47:47;;;;;;;10.33;7.67;;;14.60;54.80;;;;;;5055671;28;20453;-87
2021/12/16 14:03:01;;;;;;;15.43;6.77;;;14.50;55.30;;;;;;5078543;28;20442;-86
2021/12/16 14:05:44;;;;;;;8.93;6.87;;;14.50;55.10;;;;;;5098073;28;20470;-87
2021/12/16 14:08:13;;;;;;;9.87;5.97;;;14.50;55.20;;;;;;5094968;28;20520;-87
2021/12/16 14:10:53;;;;;;;11.37;7.70;;;14.50;55.40;;;;;;5099977;28;20992;-87
2021/12/16 14:16:27;;;;;;;11.70;8.70;;;14.50;55.60;;;;;;5097143;28;20470;-87
2021/12/16 14:42:06;;;;;;;22.20;13.20;;;14.40;56.40;;;;;;5062139;28;20525;-87
2021/12/16 14:47:52;;;;;;;20.63;12.50;;;14.50;56.80;;;;;;5090575;28;20442;-87
2021/12/16 14:50:21;;;;;;;18.83;11.00;;;14.50;56.90;;;;;;5091571;27;21011;-87
2021/12/16 14:52:48;;;;;;;16.47;10.90;;;14.50;57.00;;;;;;5069311;28;20442;-84
2021/12/16 14:55:16;;;;;;;27.03;11.87;;;14.40;57.00;;;;;;5083908;27;20515;-86
2021/12/16 14:57:45;;;;;;;17.57;10.30;;;14.50;56.90;;;;;;5081220;28;20744;-88
2021/12/16 15:00:16;;;;;;;17.57;10.53;;;14.40;56.70;;;;;;5071683;28;20479;-86
2021/12/16 15:02:48;;;;;;;15.63;10.00;;;14.40;56.80;;;;;;5080978;28;20436;-87
2021/12/16 15:05:29;;;;;;;19.10;11.30;;;14.40;56.70;;;;;;5065853;27;20747;-87
2021/12/16 15:08:05;;;;;;;20.33;11.40;;;14.40;56.70;;;;;;5102144;28;20459;-87
2021/12/16 15:10:32;;;;;;;27.20;13.97;;;14.40;56.80;;;;;;5081491;28;20592;-87
2021/12/16 15:13:09;;;;;;;34.43;15.17;;;14.40;56.90;;;;;;5081547;28;20451;-87
2021/12/16 15:15:45;;;;;;;39.93;18.10;;;14.40;56.80;;;;;;5081113;28;20443;-87
2021/12/16 15:42:43;;;;;;;21.57;12.93;;;14.30;57.20;;;;;;5085776;28;20483;-87
2021/12/16 15:43:50;;;;;;;18.10;11.00;;;14.30;57.10;;;;;;5069555;28;20474;-87
2021/12/16 15:46:17;;;;;;;22.40;14.77;;;14.30;56.90;;;;;;5078683;27;20443;-87
2021/12/16 15:48:48;;;;;;;23.40;13.53;;;14.20;56.00;;;;;;5061128;28;20455;-87
2021/12/16 15:51:17;;;;;;;19.20;10.87;;;14.20;56.40;;;;;;5064916;28;20512;-87
2021/12/16 15:53:48;;;;;;;15.33;10.27;;;14.20;56.80;;;;;;5081114;28;20462;-87